CMP839 MROC-MPTO
Flight info
| Callsign | CMP839 |
|---|---|
| Flight time | 0h 54m |
| Altitude | 31000 |
| Route | TEJAR3M LIO UA317 BUFEO DCT BITOR VUMAN2 |
| Aircraft | B738/M-SDE2E3FGHIRWXY/LB1 |
Departure
| Time | 2026-05-08 23:57 |
|---|---|
| Airport | Juan Santamaría International Airport (MROC) |
Arrival
| Time | 2026-05-09 00:51 |
|---|---|
| Airport | Tocumen International Airport (MPTO) |
| Time | Latitude | Longitude | Altitude | Speed | Heading |
|---|---|---|---|---|---|
| 2026-05-08 23:41 | 9.99750 | -84.20349 | 3033 ft | 0 kts | 339° |
| 2026-05-08 23:49 | 9.99746 | -84.20347 | 3033 ft | 2 kts | 338° |
| 2026-05-08 23:49 | 9.99731 | -84.20341 | 3036 ft | 2 kts | 335° |
| 2026-05-08 23:49 | 9.99716 | -84.20333 | 3032 ft | 2 kts | 327° |
| 2026-05-08 23:49 | 9.99704 | -84.20323 | 3034 ft | 2 kts | 290° |
| 2026-05-08 23:50 | 9.99703 | -84.20308 | 3032 ft | 1 kts | 250° |
| 2026-05-08 23:50 | 9.99704 | -84.20305 | 3032 ft | 0 kts | 249° |
| 2026-05-08 23:52 | 9.99704 | -84.20307 | 3033 ft | 0 kts | 249° |
| 2026-05-08 23:53 | 9.99701 | -84.20315 | 3035 ft | 6 kts | 249° |
| 2026-05-08 23:53 | 9.99672 | -84.20392 | 3036 ft | 17 kts | 249° |
| 2026-05-08 23:53 | 9.99628 | -84.20512 | 3034 ft | 19 kts | 247° |
| 2026-05-08 23:54 | 9.99570 | -84.20660 | 3034 ft | 26 kts | 249° |
| 2026-05-08 23:54 | 9.99499 | -84.20854 | 3033 ft | 32 kts | 250° |
| 2026-05-08 23:54 | 9.99419 | -84.21066 | 3012 ft | 38 kts | 249° |
| 2026-05-08 23:55 | 9.99260 | -84.21486 | 2983 ft | 30 kts | 249° |
| 2026-05-08 23:55 | 9.99181 | -84.21698 | 2969 ft | 35 kts | 250° |
| 2026-05-08 23:55 | 9.99101 | -84.21914 | 2950 ft | 26 kts | 248° |
| 2026-05-08 23:55 | 9.99099 | -84.22080 | 2954 ft | 23 kts | 250° |
| 2026-05-08 23:56 | 9.99011 | -84.22202 | 2942 ft | 22 kts | 184° |
| 2026-05-08 23:56 | 9.98914 | -84.22157 | 2943 ft | 9 kts | 90° |
| 2026-05-08 23:56 | 9.98975 | -84.21993 | 2957 ft | 54 kts | 69° |
| 2026-05-08 23:56 | 9.99189 | -84.21423 | 2987 ft | 117 kts | 69° |
| 2026-05-08 23:57 | 9.99533 | -84.20472 | 3062 ft | 166 kts | 73° |
| 2026-05-08 23:57 | 9.99946 | -84.19339 | 3757 ft | 172 kts | 71° |
| 2026-05-08 23:57 | 10.00367 | -84.18226 | 4613 ft | 172 kts | 68° |
| 2026-05-08 23:57 | 10.00825 | -84.17033 | 5101 ft | 195 kts | 68° |
| 2026-05-08 23:58 | 10.01349 | -84.15669 | 5375 ft | 215 kts | 68° |
| 2026-05-08 23:58 | 10.01897 | -84.14240 | 6001 ft | 218 kts | 68° |
| 2026-05-08 23:58 | 10.02190 | -84.12725 | 6547 ft | 225 kts | 93° |
| 2026-05-08 23:58 | 10.01703 | -84.11192 | 7028 ft | 239 kts | 120° |
| 2026-05-08 23:59 | 10.00501 | -84.09878 | 7211 ft | 270 kts | 137° |
| 2026-05-08 23:59 | 9.98984 | -84.08662 | 7790 ft | 281 kts | 140° |
| 2026-05-08 23:59 | 9.97422 | -84.07463 | 8630 ft | 282 kts | 140° |
| 2026-05-08 23:59 | 9.95866 | -84.06251 | 9493 ft | 282 kts | 139° |
| 2026-05-09 00:00 | 9.94303 | -84.05012 | 10193 ft | 289 kts | 139° |
| 2026-05-09 00:00 | 9.92671 | -84.03705 | 10452 ft | 311 kts | 139° |
| 2026-05-09 00:00 | 9.90915 | -84.02297 | 10687 ft | 331 kts | 139° |
| 2026-05-09 00:00 | 9.89076 | -84.00834 | 11198 ft | 339 kts | 139° |
| 2026-05-09 00:01 | 9.87206 | -83.99349 | 11823 ft | 343 kts | 139° |
| 2026-05-09 00:01 | 9.85322 | -83.97853 | 12501 ft | 346 kts | 139° |
| 2026-05-09 00:01 | 9.83593 | -83.96166 | 13128 ft | 346 kts | 122° |
| 2026-05-09 00:01 | 9.82573 | -83.93976 | 13786 ft | 344 kts | 103° |
| 2026-05-09 00:02 | 9.82318 | -83.91576 | 14368 ft | 345 kts | 86° |
| 2026-05-09 00:02 | 9.82486 | -83.89137 | 14920 ft | 350 kts | 84° |
| 2026-05-09 00:02 | 9.82721 | -83.86661 | 15443 ft | 354 kts | 83° |
| 2026-05-09 00:02 | 9.82955 | -83.84161 | 16005 ft | 358 kts | 84° |
| 2026-05-09 00:03 | 9.83168 | -83.81635 | 16571 ft | 362 kts | 84° |
| 2026-05-09 00:03 | 9.83372 | -83.79071 | 17121 ft | 366 kts | 84° |
| 2026-05-09 00:03 | 9.83568 | -83.76484 | 17657 ft | 371 kts | 84° |
| 2026-05-09 00:03 | 9.83752 | -83.73868 | 18013 ft | 375 kts | 84° |
| 2026-05-09 00:04 | 9.83935 | -83.71195 | 18425 ft | 381 kts | 84° |
| 2026-05-09 00:04 | 9.84075 | -83.68527 | 19065 ft | 379 kts | 87° |
| 2026-05-09 00:04 | 9.84071 | -83.65849 | 19587 ft | 381 kts | 90° |
| 2026-05-09 00:04 | 9.84001 | -83.63152 | 20065 ft | 383 kts | 90° |
| 2026-05-09 00:05 | 9.83914 | -83.60450 | 20620 ft | 384 kts | 91° |
| 2026-05-09 00:05 | 9.83828 | -83.57736 | 21105 ft | 386 kts | 91° |
| 2026-05-09 00:05 | 9.83751 | -83.54994 | 21489 ft | 392 kts | 90° |
| 2026-05-09 00:05 | 9.83681 | -83.52224 | 21963 ft | 393 kts | 90° |
| 2026-05-09 00:06 | 9.83618 | -83.49447 | 22488 ft | 394 kts | 90° |
| 2026-05-09 00:06 | 9.83560 | -83.46668 | 23001 ft | 395 kts | 90° |
| 2026-05-09 00:06 | 9.83500 | -83.43883 | 23457 ft | 396 kts | 90° |
| 2026-05-09 00:06 | 9.83441 | -83.41082 | 23817 ft | 399 kts | 90° |
| 2026-05-09 00:07 | 9.83382 | -83.38251 | 24095 ft | 403 kts | 90° |
| 2026-05-09 00:07 | 9.83322 | -83.35403 | 24421 ft | 406 kts | 90° |
| 2026-05-09 00:07 | 9.83262 | -83.32536 | 24738 ft | 408 kts | 90° |
| 2026-05-09 00:07 | 9.83202 | -83.29651 | 25003 ft | 411 kts | 90° |
| 2026-05-09 00:08 | 9.83141 | -83.26749 | 25337 ft | 413 kts | 90° |
| 2026-05-09 00:08 | 9.83079 | -83.23827 | 25646 ft | 416 kts | 90° |
| 2026-05-09 00:08 | 9.83017 | -83.20888 | 25943 ft | 419 kts | 90° |
| 2026-05-09 00:08 | 9.82953 | -83.17925 | 26250 ft | 422 kts | 90° |
| 2026-05-09 00:09 | 9.82890 | -83.14937 | 26568 ft | 424 kts | 90° |
| 2026-05-09 00:09 | 9.82825 | -83.11935 | 26872 ft | 427 kts | 90° |
| 2026-05-09 00:09 | 9.82760 | -83.08918 | 27164 ft | 430 kts | 90° |
| 2026-05-09 00:09 | 9.82694 | -83.05883 | 27452 ft | 432 kts | 90° |
| 2026-05-09 00:10 | 9.82628 | -83.02827 | 27736 ft | 435 kts | 90° |
| 2026-05-09 00:10 | 9.82561 | -82.99790 | 28017 ft | 438 kts | 90° |
| 2026-05-09 00:10 | 9.82494 | -82.96695 | 28301 ft | 440 kts | 90° |
| 2026-05-09 00:10 | 9.82425 | -82.93585 | 28574 ft | 443 kts | 90° |
| 2026-05-09 00:11 | 9.82356 | -82.90459 | 28871 ft | 444 kts | 90° |
| 2026-05-09 00:11 | 9.82286 | -82.87330 | 29253 ft | 444 kts | 90° |
| 2026-05-09 00:11 | 9.82216 | -82.84208 | 29688 ft | 442 kts | 90° |
| 2026-05-09 00:11 | 9.82146 | -82.81091 | 30059 ft | 442 kts | 90° |
| 2026-05-09 00:12 | 9.82076 | -82.77977 | 30369 ft | 442 kts | 90° |
| 2026-05-09 00:12 | 9.82006 | -82.74858 | 30722 ft | 442 kts | 90° |
| 2026-05-09 00:12 | 9.81935 | -82.71740 | 30880 ft | 444 kts | 90° |
| 2026-05-09 00:13 | 9.81792 | -82.65452 | 30884 ft | 445 kts | 90° |
| 2026-05-09 00:13 | 9.81636 | -82.59241 | 30883 ft | 440 kts | 93° |
| 2026-05-09 00:14 | 9.80372 | -82.53171 | 30893 ft | 443 kts | 108° |
| 2026-05-09 00:14 | 9.78285 | -82.47265 | 30884 ft | 445 kts | 109° |
| 2026-05-09 00:15 | 9.76174 | -82.41363 | 30881 ft | 446 kts | 109° |
| 2026-05-09 00:15 | 9.74092 | -82.35436 | 30880 ft | 446 kts | 108° |
| 2026-05-09 00:16 | 9.72028 | -82.29500 | 30881 ft | 446 kts | 108° |
| 2026-05-09 00:16 | 9.69972 | -82.23571 | 30882 ft | 446 kts | 108° |
| 2026-05-09 00:17 | 9.67928 | -82.17683 | 30881 ft | 445 kts | 108° |
| 2026-05-09 00:17 | 9.65875 | -82.11773 | 30884 ft | 444 kts | 108° |
| 2026-05-09 00:18 | 9.63824 | -82.05874 | 30882 ft | 444 kts | 108° |
| 2026-05-09 00:18 | 9.61749 | -81.99908 | 30893 ft | 454 kts | 108° |
| 2026-05-09 00:19 | 9.59624 | -81.93804 | 30892 ft | 464 kts | 108° |
| 2026-05-09 00:19 | 9.57457 | -81.87584 | 30890 ft | 472 kts | 108° |
| 2026-05-09 00:20 | 9.55253 | -81.81263 | 30887 ft | 479 kts | 108° |
| 2026-05-09 00:20 | 9.53021 | -81.74867 | 30881 ft | 483 kts | 108° |
| 2026-05-09 00:21 | 9.50778 | -81.68442 | 30878 ft | 484 kts | 108° |
| 2026-05-09 00:21 | 9.48530 | -81.62007 | 30877 ft | 485 kts | 108° |
| 2026-05-09 00:22 | 9.46282 | -81.55575 | 30879 ft | 484 kts | 108° |
| 2026-05-09 00:22 | 9.44032 | -81.49142 | 30879 ft | 484 kts | 108° |
| 2026-05-09 00:23 | 9.41784 | -81.42717 | 30879 ft | 483 kts | 109° |
| 2026-05-09 00:23 | 9.39935 | -81.37439 | 30863 ft | 466 kts | 108° |
| 2026-05-09 00:23 | 9.38522 | -81.33410 | 30857 ft | 443 kts | 108° |
| 2026-05-09 00:24 | 9.37519 | -81.30552 | 30866 ft | 432 kts | 108° |
| 2026-05-09 00:24 | 9.35833 | -81.25737 | 30560 ft | 434 kts | 108° |
| 2026-05-09 00:24 | 9.34831 | -81.22878 | 30213 ft | 428 kts | 108° |
| 2026-05-09 00:25 | 9.33836 | -81.20041 | 29781 ft | 425 kts | 108° |
| 2026-05-09 00:25 | 9.32850 | -81.17231 | 29305 ft | 422 kts | 108° |
| 2026-05-09 00:25 | 9.31873 | -81.14449 | 28924 ft | 416 kts | 108° |
| 2026-05-09 00:26 | 9.29946 | -81.08960 | 28865 ft | 403 kts | 108° |
| 2026-05-09 00:26 | 9.29035 | -81.06368 | 28862 ft | 389 kts | 108° |
| 2026-05-09 00:26 | 9.28146 | -81.03837 | 28860 ft | 375 kts | 108° |
| 2026-05-09 00:26 | 9.27288 | -81.01398 | 28852 ft | 361 kts | 108° |
| 2026-05-09 00:27 | 9.26464 | -80.99042 | 28856 ft | 348 kts | 108° |
| 2026-05-09 00:27 | 9.25685 | -80.96764 | 28854 ft | 335 kts | 108° |
| 2026-05-09 00:27 | 9.24944 | -80.94572 | 28852 ft | 323 kts | 107° |
| 2026-05-09 00:28 | 9.23526 | -80.90368 | 28891 ft | 318 kts | 107° |
| 2026-05-09 00:28 | 9.22799 | -80.88211 | 28898 ft | 330 kts | 107° |
| 2026-05-09 00:28 | 9.22047 | -80.85982 | 28893 ft | 337 kts | 108° |
| 2026-05-09 00:29 | 9.20532 | -80.81511 | 28866 ft | 333 kts | 108° |
| 2026-05-09 00:29 | 9.19036 | -80.77102 | 28862 ft | 329 kts | 108° |
| 2026-05-09 00:30 | 9.17560 | -80.72752 | 28863 ft | 325 kts | 108° |
| 2026-05-09 00:30 | 9.16095 | -80.68437 | 28870 ft | 323 kts | 108° |
| 2026-05-09 00:31 | 9.14633 | -80.64132 | 28885 ft | 325 kts | 108° |
| 2026-05-09 00:31 | 9.13366 | -80.60403 | 28537 ft | 318 kts | 108° |
| 2026-05-09 00:31 | 9.12648 | -80.58291 | 28063 ft | 317 kts | 108° |
| 2026-05-09 00:32 | 9.11934 | -80.56188 | 27566 ft | 316 kts | 108° |
| 2026-05-09 00:32 | 9.11218 | -80.54082 | 26877 ft | 320 kts | 108° |
| 2026-05-09 00:32 | 9.10470 | -80.51879 | 25664 ft | 342 kts | 108° |
| 2026-05-09 00:32 | 9.09673 | -80.49531 | 24420 ft | 363 kts | 108° |
| 2026-05-09 00:33 | 9.08836 | -80.47071 | 23512 ft | 372 kts | 108° |
| 2026-05-09 00:33 | 9.07997 | -80.44608 | 22798 ft | 369 kts | 108° |
| 2026-05-09 00:33 | 9.07165 | -80.42167 | 22207 ft | 363 kts | 108° |
| 2026-05-09 00:33 | 9.06357 | -80.39795 | 21889 ft | 350 kts | 107° |
| 2026-05-09 00:34 | 9.05715 | -80.37462 | 21475 ft | 340 kts | 101° |
| 2026-05-09 00:34 | 9.05257 | -80.35127 | 20901 ft | 337 kts | 99° |
| 2026-05-09 00:34 | 9.04855 | -80.32789 | 20271 ft | 338 kts | 98° |
| 2026-05-09 00:34 | 9.04457 | -80.30450 | 19678 ft | 337 kts | 98° |
| 2026-05-09 00:35 | 9.04052 | -80.28122 | 19116 ft | 335 kts | 99° |
| 2026-05-09 00:35 | 9.03638 | -80.25806 | 18586 ft | 334 kts | 99° |
| 2026-05-09 00:35 | 9.03224 | -80.23533 | 18043 ft | 332 kts | 99° |
| 2026-05-09 00:35 | 9.02800 | -80.21242 | 17487 ft | 329 kts | 99° |
| 2026-05-09 00:36 | 9.02380 | -80.18991 | 17036 ft | 323 kts | 99° |
| 2026-05-09 00:36 | 9.01964 | -80.16773 | 16541 ft | 319 kts | 99° |
| 2026-05-09 00:36 | 9.01552 | -80.14581 | 16063 ft | 315 kts | 99° |
| 2026-05-09 00:36 | 9.01145 | -80.12417 | 15585 ft | 311 kts | 99° |
| 2026-05-09 00:37 | 9.00743 | -80.10283 | 15119 ft | 307 kts | 99° |
| 2026-05-09 00:37 | 9.00346 | -80.08178 | 14680 ft | 302 kts | 99° |
| 2026-05-09 00:37 | 8.99956 | -80.06103 | 14224 ft | 298 kts | 98° |
| 2026-05-09 00:37 | 8.99569 | -80.04052 | 13762 ft | 295 kts | 98° |
| 2026-05-09 00:38 | 8.99187 | -80.02026 | 13257 ft | 292 kts | 98° |
| 2026-05-09 00:38 | 8.98809 | -80.00021 | 12741 ft | 289 kts | 98° |
| 2026-05-09 00:38 | 8.98432 | -79.98025 | 12198 ft | 288 kts | 98° |
| 2026-05-09 00:38 | 8.98057 | -79.96039 | 11672 ft | 287 kts | 99° |
| 2026-05-09 00:39 | 8.97686 | -79.94072 | 11283 ft | 281 kts | 98° |
| 2026-05-09 00:39 | 8.97325 | -79.92164 | 10993 ft | 272 kts | 98° |
| 2026-05-09 00:39 | 8.96968 | -79.90269 | 10032 ft | 286 kts | 98° |
| 2026-05-09 00:39 | 8.96579 | -79.88194 | 8648 ft | 312 kts | 99° |
| 2026-05-09 00:40 | 8.96158 | -79.85966 | 7816 ft | 324 kts | 99° |
| 2026-05-09 00:40 | 8.95739 | -79.83763 | 7588 ft | 315 kts | 99° |
| 2026-05-09 00:40 | 8.95330 | -79.81611 | 7339 ft | 308 kts | 99° |
| 2026-05-09 00:41 | 8.94543 | -79.77465 | 6854 ft | 293 kts | 99° |
| 2026-05-09 00:41 | 8.94162 | -79.75458 | 6612 ft | 288 kts | 98° |
| 2026-05-09 00:41 | 8.93788 | -79.73483 | 6384 ft | 284 kts | 98° |
| 2026-05-09 00:41 | 8.93420 | -79.71538 | 6146 ft | 280 kts | 98° |
| 2026-05-09 00:42 | 8.93141 | -79.70064 | 5952 ft | 277 kts | 98° |
| 2026-05-09 00:42 | 8.92781 | -79.68162 | 5713 ft | 273 kts | 98° |
| 2026-05-09 00:42 | 8.92429 | -79.66305 | 5453 ft | 264 kts | 98° |
| 2026-05-09 00:42 | 8.92086 | -79.64500 | 5210 ft | 260 kts | 97° |
| 2026-05-09 00:43 | 8.91746 | -79.62696 | 5043 ft | 259 kts | 98° |
| 2026-05-09 00:43 | 8.91408 | -79.60922 | 5012 ft | 255 kts | 98° |
| 2026-05-09 00:43 | 8.91073 | -79.59159 | 4723 ft | 254 kts | 98° |
| 2026-05-09 00:43 | 8.90745 | -79.57431 | 4384 ft | 247 kts | 98° |
| 2026-05-09 00:44 | 8.90424 | -79.55738 | 4061 ft | 236 kts | 98° |
| 2026-05-09 00:44 | 8.90125 | -79.54176 | 3927 ft | 217 kts | 97° |
| 2026-05-09 00:44 | 8.89850 | -79.52735 | 3795 ft | 200 kts | 97° |
| 2026-05-09 00:44 | 8.89595 | -79.51393 | 3625 ft | 187 kts | 97° |
| 2026-05-09 00:45 | 8.89066 | -79.50246 | 3566 ft | 183 kts | 134° |
| 2026-05-09 00:45 | 8.87951 | -79.49554 | 3517 ft | 203 kts | 151° |
| 2026-05-09 00:45 | 8.86747 | -79.48795 | 4146 ft | 206 kts | 139° |
| 2026-05-09 00:45 | 8.85893 | -79.47561 | 3954 ft | 214 kts | 102° |
| 2026-05-09 00:46 | 8.85918 | -79.46172 | 3873 ft | 187 kts | 66° |
| 2026-05-09 00:46 | 8.86672 | -79.45245 | 3818 ft | 162 kts | 28° |
| 2026-05-09 00:46 | 8.87716 | -79.44967 | 3830 ft | 154 kts | 355° |
| 2026-05-09 00:46 | 8.88740 | -79.45338 | 3839 ft | 160 kts | 341° |
| 2026-05-09 00:47 | 8.89795 | -79.45755 | 3609 ft | 166 kts | 341° |
| 2026-05-09 00:47 | 8.90833 | -79.46159 | 3338 ft | 153 kts | 342° |
| 2026-05-09 00:47 | 8.91867 | -79.46150 | 3078 ft | 155 kts | 19° |
| 2026-05-09 00:47 | 8.92882 | -79.45766 | 3034 ft | 154 kts | 21° |
| 2026-05-09 00:48 | 8.93871 | -79.45352 | 2999 ft | 151 kts | 22° |
| 2026-05-09 00:48 | 8.94807 | -79.44920 | 2986 ft | 145 kts | 26° |
| 2026-05-09 00:48 | 8.95692 | -79.44447 | 2805 ft | 147 kts | 27° |
| 2026-05-09 00:48 | 8.96624 | -79.43922 | 2068 ft | 155 kts | 27° |
| 2026-05-09 00:49 | 8.97561 | -79.43387 | 1552 ft | 146 kts | 28° |
| 2026-05-09 00:49 | 8.98380 | -79.42916 | 1383 ft | 130 kts | 27° |
| 2026-05-09 00:49 | 8.99223 | -79.42435 | 1256 ft | 147 kts | 27° |
| 2026-05-09 00:49 | 9.00094 | -79.41935 | 1066 ft | 141 kts | 25° |
| 2026-05-09 00:50 | 9.00950 | -79.41448 | 904 ft | 143 kts | 28° |
| 2026-05-09 00:50 | 9.01818 | -79.40948 | 719 ft | 142 kts | 28° |
| 2026-05-09 00:50 | 9.02678 | -79.40455 | 505 ft | 140 kts | 29° |
| 2026-05-09 00:50 | 9.03500 | -79.39983 | 327 ft | 138 kts | 27° |
| 2026-05-09 00:51 | 9.04327 | -79.39512 | 166 ft | 135 kts | 27° |
| 2026-05-09 00:51 | 9.05153 | -79.39032 | 40 ft | 131 kts | 28° |
| 2026-05-09 00:51 | 9.05845 | -79.38647 | 32 ft | 88 kts | 29° |
| 2026-05-09 00:51 | 9.06205 | -79.38444 | 30 ft | 42 kts | 28° |
| 2026-05-09 00:52 | 9.06431 | -79.38375 | 29 ft | 26 kts | 357° |
| 2026-05-09 00:52 | 9.06583 | -79.38377 | 29 ft | 21 kts | 0° |
| 2026-05-09 00:52 | 9.06652 | -79.38458 | 29 ft | 12 kts | 230° |
| 2026-05-09 00:52 | 9.06534 | -79.38527 | 29 ft | 29 kts | 208° |
| 2026-05-09 00:53 | 9.06366 | -79.38623 | 29 ft | 23 kts | 231° |
| 2026-05-09 00:53 | 9.06347 | -79.38768 | 29 ft | 17 kts | 214° |
| 2026-05-09 00:53 | 9.06290 | -79.38801 | 29 ft | 5 kts | 275° |
| 2026-05-09 00:53 | 9.06303 | -79.38868 | 29 ft | 9 kts | 281° |
| 2026-05-09 00:54 | 9.06305 | -79.38883 | 29 ft | 0 kts | 280° |